MSC Mara — V7NF9 — position and weather

sailwx.info

Track history (hours):
 
Tides and Currents Weather Stations Pressure Air Temp Water Temp Dewpoint Dewpoint Depression Visibility Wind Speed Wind Dir Waves Ship Positions

MSC Mara

Last reported at 2016-Apr-30 15:31 UTC. Time now 2016-May-05 08:31 UTC.
Position S 26°41' E 153°14'.

Length 294 m; draft 9.6 m.

Type: Ship (hazmat cat C). MMSI: 538002955.

Date/timePositionNaut miles runAvg speedWind from/ knotsBaromVisibWave heightAir tempDewpointWater temp
2016-Apr-30 15:31S 26°41' E 153°14'1313.2
2016-Apr-30 14:30S 26°54' E 153°11'1617.1
2016-Apr-30 13:33S 27°07' E 153°21'1515.3
2016-Apr-30 12:33S 27°20' E 153°11'2 2.2
2016-Apr-30 11:27S 27°22' E 153°10'0 0.0
2016-Apr-30 10:33S 27°22' E 153°10'0 0.0
2016-Apr-30 09:30S 27°22' E 153°10'0 0.0
2016-Apr-30 08:33S 27°22' E 153°10'0 0.0
2016-Apr-30 07:33S 27°22' E 153°10'0 0.0
2016-Apr-30 06:33S 27°22' E 153°10'0 0.0
2016-Apr-29 22:29S 27°22' E 153°10'0 0.0
2016-Apr-29 21:32S 27°22' E 153°10'0 0.0
2016-Apr-29 20:32S 27°22' E 153°10'0 0.0
2016-Apr-29 19:26S 27°22' E 153°10'0 0.0
2016-Apr-29 18:32S 27°22' E 153°10'0 0.0
2016-Apr-29 17:32S 27°22' E 153°10'0 0.0
2016-Apr-29 16:32S 27°22' E 153°10'0 0.0
2016-Apr-29 15:32S 27°22' E 153°10'0 0.0
2016-Apr-29 14:32S 27°22' E 153°10'0 0.0
2016-Apr-29 13:32S 27°22' E 153°10'0 0.0
2016-Apr-29 12:32S 27°22' E 153°10'0 0.0
2016-Apr-29 11:32S 27°22' E 153°10'0 0.0
2016-Apr-29 10:32S 27°22' E 153°10'0 0.0
2016-Apr-29 09:32S 27°22' E 153°10'0 0.0
2016-Apr-29 08:32S 27°22' E 153°10'0 0.0
2016-Apr-29 07:32S 27°22' E 153°10'0 0.0
2016-Apr-29 06:32S 27°22' E 153°10'0 0.0
2016-Apr-29 05:29S 27°22' E 153°10'0 0.0
2016-Apr-29 04:32S 27°22' E 153°10'0 0.1
2016-Apr-29 03:34S 27°22' E 153°10'1312.9
2016-Apr-29 02:34S 27°13' E 153°20'1717.4
2016-Apr-29 01:33S 26°57' E 153°13'1313.3
2016-Apr-29 00:33S 26°44' E 153°11'2014.2
2016-Apr-28 23:09S 26°51' E 153°32'1220.1
2016-Apr-28 22:33S 26°58' E 153°42'34814.5
2016-Apr-27 22:33S 32°42' E 152°43'1614.7
2016-Apr-27 21:27S 32°57' E 152°35'1914.5
2016-Apr-27 20:08S 33°14' E 152°24'183 4.3
2016-Apr-26 01:17S 35°59' E 150°48'1215.9
2016-Apr-26 00:33S 36°10' E 150°44'1615.9
2016-Apr-25 23:33S 36°26' E 150°39'1616.1
2016-Apr-25 22:33S 36°41' E 150°34'1616.2
2016-Apr-25 21:33S 36°57' E 150°28'1616.0
2016-Apr-25 20:33S 37°12' E 150°23'1616.1
2016-Apr-25 19:33S 37°28' E 150°18'1515.4
2016-Apr-25 18:33S 37°41' E 150°08'1615.8
2016-Apr-25 17:33S 37°50' E 149°52'1616.0
2016-Apr-25 16:33S 37°60' E 149°35'1615.9
2016-Apr-25 15:33S 38°09' E 149°19'1615.7
2016-Apr-25 14:33S 38°19' E 149°03'1616.1
2016-Apr-25 13:33S 38°28' E 148°47'1615.9
2016-Apr-25 12:33S 38°38' E 148°31'1616.0
2016-Apr-25 11:33S 38°47' E 148°14'1615.9
2016-Apr-25 10:33S 38°53' E 147°55'1615.6
2016-Apr-25 09:33S 38°58' E 147°36'1615.8
2016-Apr-25 08:33S 39°04' E 147°17'1616.3
2016-Apr-25 07:33S 39°10' E 146°57'1716.9
2016-Apr-25 06:33S 39°16' E 146°37'1616.2
2016-Apr-25 05:33S 39°17' E 146°16'1616.0
2016-Apr-25 04:33S 39°11' E 145°57'1615.9
2016-Apr-25 03:33S 39°04' E 145°39'1915.4
2016-Apr-25 02:20S 38°55' E 145°18'25 0.5
2016-Apr-23 03:30S 39°03' E 145°48'1718.6
2016-Apr-23 02:33S 39°10' E 146°09'1918.6
2016-Apr-23 01:33S 39°08' E 146°33'1919.0
2016-Apr-23 00:34S 39°02' E 146°56'2019.8
2016-Apr-22 23:33S 38°56' E 147°21'12818.4
2016-Apr-22 16:34S 37°52' E 149°42'1817.6
2016-Apr-22 15:33S 37°41' E 150°00'2317.7
2016-Apr-22 14:15S 37°23' E 150°18'24517.9
2016-Apr-22 00:33S 33°38' E 152°17'1818.4
2016-Apr-21 23:34S 33°21' E 152°26'1918.5
2016-Apr-21 22:33S 33°04' E 152°33'2118.8
2016-Apr-21 21:27S 32°45' E 152°43'  
Track history (hours):
 
Tides and Currents Weather Stations Pressure Air Temp Water Temp Dewpoint Dewpoint Depression Visibility Wind Speed Wind Dir Waves Ship Positions

MSC Mara

Last reported at 2016-Apr-30 15:31 UTC. Time now 2016-May-05 08:31 UTC.
Position S 26°41' E 153°14'.

Length 294 m; draft 9.6 m.

Type: Ship (hazmat cat C). MMSI: 538002955.

Date/timePositionNaut miles runAvg speedWind from/ knotsBaromVisibWave heightAir tempDewpointWater temp
2016-Apr-30 15:31S 26°41' E 153°14'1313.2
2016-Apr-30 14:30S 26°54' E 153°11'1617.1
2016-Apr-30 13:33S 27°07' E 153°21'1515.3
2016-Apr-30 12:33S 27°20' E 153°11'2 2.2
2016-Apr-30 11:27S 27°22' E 153°10'0 0.0
2016-Apr-30 10:33S 27°22' E 153°10'0 0.0
2016-Apr-30 09:30S 27°22' E 153°10'0 0.0
2016-Apr-30 08:33S 27°22' E 153°10'0 0.0
2016-Apr-30 07:33S 27°22' E 153°10'0 0.0
2016-Apr-30 06:33S 27°22' E 153°10'0 0.0
2016-Apr-29 22:29S 27°22' E 153°10'0 0.0
2016-Apr-29 21:32S 27°22' E 153°10'0 0.0
2016-Apr-29 20:32S 27°22' E 153°10'0 0.0
2016-Apr-29 19:26S 27°22' E 153°10'0 0.0
2016-Apr-29 18:32S 27°22' E 153°10'0 0.0
2016-Apr-29 17:32S 27°22' E 153°10'0 0.0
2016-Apr-29 16:32S 27°22' E 153°10'0 0.0
2016-Apr-29 15:32S 27°22' E 153°10'0 0.0
2016-Apr-29 14:32S 27°22' E 153°10'0 0.0
2016-Apr-29 13:32S 27°22' E 153°10'0 0.0
2016-Apr-29 12:32S 27°22' E 153°10'0 0.0
2016-Apr-29 11:32S 27°22' E 153°10'0 0.0
2016-Apr-29 10:32S 27°22' E 153°10'0 0.0
2016-Apr-29 09:32S 27°22' E 153°10'0 0.0
2016-Apr-29 08:32S 27°22' E 153°10'0 0.0
2016-Apr-29 07:32S 27°22' E 153°10'0 0.0
2016-Apr-29 06:32S 27°22' E 153°10'0 0.0
2016-Apr-29 05:29S 27°22' E 153°10'0 0.0
2016-Apr-29 04:32S 27°22' E 153°10'0 0.1
2016-Apr-29 03:34S 27°22' E 153°10'1312.9
2016-Apr-29 02:34S 27°13' E 153°20'1717.4
2016-Apr-29 01:33S 26°57' E 153°13'1313.3
2016-Apr-29 00:33S 26°44' E 153°11'2014.2
2016-Apr-28 23:09S 26°51' E 153°32'1220.1
2016-Apr-28 22:33S 26°58' E 153°42'34814.5
2016-Apr-27 22:33S 32°42' E 152°43'1614.7
2016-Apr-27 21:27S 32°57' E 152°35'1914.5
2016-Apr-27 20:08S 33°14' E 152°24'183 4.3
2016-Apr-26 01:17S 35°59' E 150°48'1215.9
2016-Apr-26 00:33S 36°10' E 150°44'1615.9
2016-Apr-25 23:33S 36°26' E 150°39'1616.1
2016-Apr-25 22:33S 36°41' E 150°34'1616.2
2016-Apr-25 21:33S 36°57' E 150°28'1616.0
2016-Apr-25 20:33S 37°12' E 150°23'1616.1
2016-Apr-25 19:33S 37°28' E 150°18'1515.4
2016-Apr-25 18:33S 37°41' E 150°08'1615.8
2016-Apr-25 17:33S 37°50' E 149°52'1616.0
2016-Apr-25 16:33S 37°60' E 149°35'1615.9
2016-Apr-25 15:33S 38°09' E 149°19'1615.7
2016-Apr-25 14:33S 38°19' E 149°03'1616.1
2016-Apr-25 13:33S 38°28' E 148°47'1615.9
2016-Apr-25 12:33S 38°38' E 148°31'1616.0
2016-Apr-25 11:33S 38°47' E 148°14'1615.9
2016-Apr-25 10:33S 38°53' E 147°55'1615.6
2016-Apr-25 09:33S 38°58' E 147°36'1615.8
2016-Apr-25 08:33S 39°04' E 147°17'1616.3
2016-Apr-25 07:33S 39°10' E 146°57'1716.9
2016-Apr-25 06:33S 39°16' E 146°37'1616.2
2016-Apr-25 05:33S 39°17' E 146°16'1616.0
2016-Apr-25 04:33S 39°11' E 145°57'1615.9
2016-Apr-25 03:33S 39°04' E 145°39'1915.4
2016-Apr-25 02:20S 38°55' E 145°18'25 0.5
2016-Apr-23 03:30S 39°03' E 145°48'1718.6
2016-Apr-23 02:33S 39°10' E 146°09'1918.6
2016-Apr-23 01:33S 39°08' E 146°33'1919.0
2016-Apr-23 00:34S 39°02' E 146°56'2019.8
2016-Apr-22 23:33S 38°56' E 147°21'12818.4
2016-Apr-22 16:34S 37°52' E 149°42'1817.6
2016-Apr-22 15:33S 37°41' E 150°00'2317.7
2016-Apr-22 14:15S 37°23' E 150°18'24517.9
2016-Apr-22 00:33S 33°38' E 152°17'1818.4
2016-Apr-21 23:34S 33°21' E 152°26'1918.5
2016-Apr-21 22:33S 33°04' E 152°33'2118.8
2016-Apr-21 21:27S 32°45' E 152°43'  

Dump ship's entire track history